Time;durP1;ratioP1;P1;durP2;ratioP2;P2;SDS_P1;SDS_P2;PMS_P1;PMS_P2;Temp;Humidity;BMP_temperature;BMP_pressure;BME280_temperature;BME280_humidity;BME280_pressure;Samples;Min_cycle;Max_cycle;Signal;HPM_P1;HPM_P2
2021/01/15 00:01:35;;;;;;;11.80;6.90;;;;;;;2.73;67.93;99416.09;5064376;28;20040;-66
2021/01/15 00:04:01;;;;;;;13.97;8.17;;;;;;;2.60;67.49;99415.38;5064030;28;20037;-64
2021/01/15 00:06:26;;;;;;;15.20;7.53;;;;;;;2.55;68.03;99431.44;5064228;28;20045;-66
2021/01/15 00:08:53;;;;;;;9.73;5.60;;;;;;;2.56;66.50;99423.47;5064109;28;20070;-63
2021/01/15 00:11:24;;;;;;;8.00;4.73;;;;;;;2.44;66.21;99447.09;5063994;28;20071;-66
2021/01/15 00:13:51;;;;;;;7.03;4.53;;;;;;;2.38;66.21;99453.63;5064103;28;20040;-63
2021/01/15 00:16:25;;;;;;;8.60;5.13;;;;;;;2.32;66.67;99464.53;5063906;28;20302;-66
2021/01/15 00:18:55;;;;;;;8.27;4.57;;;;;;;2.38;66.16;99465.88;5063798;28;20100;-66
2021/01/15 00:21:22;;;;;;;10.50;5.03;;;;;;;2.39;66.33;99473.59;5064151;28;20036;-63
2021/01/15 00:23:49;;;;;;;8.20;4.80;;;;;;;2.28;66.88;99459.66;5064070;28;20028;-63
2021/01/15 00:26:20;;;;;;;9.07;4.60;;;;;;;2.22;66.41;99463.59;5063727;28;20214;-63
2021/01/15 00:28:46;;;;;;;7.47;4.40;;;;;;;2.31;65.81;99447.22;5064056;28;20024;-63
2021/01/15 00:31:12;;;;;;;9.83;4.40;;;;;;;2.11;66.23;99453.13;5063540;28;20033;-66
2021/01/15 00:33:38;;;;;;;9.13;5.33;;;;;;;2.23;65.98;99449.56;5063756;28;20333;-63
2021/01/15 00:36:05;;;;;;;8.63;4.77;;;;;;;2.08;66.20;99466.38;5063767;28;20066;-63
2021/01/15 00:38:31;;;;;;;9.70;5.37;;;;;;;2.07;65.59;99470.75;5063783;28;20044;-63
2021/01/15 00:41:02;;;;;;;7.93;4.73;;;;;;;2.14;64.98;99487.66;5063313;28;20357;-63
2021/01/15 00:43:27;;;;;;;9.73;4.77;;;;;;;2.00;65.78;99487.00;5063549;28;20036;-66
2021/01/15 00:45:53;;;;;;;12.17;6.30;;;;;;;2.22;64.48;99495.75;5063232;28;20025;-66
2021/01/15 00:48:19;;;;;;;9.80;4.93;;;;;;;2.17;64.51;99494.44;5063602;28;20021;-63
2021/01/15 00:50:44;;;;;;;8.53;5.00;;;;;;;2.36;63.89;99504.34;5063075;28;20028;-63
2021/01/15 00:53:10;;;;;;;8.60;4.67;;;;;;;2.19;63.97;99490.78;5063206;28;20088;-63
2021/01/15 00:55:35;;;;;;;10.60;5.50;;;;;;;2.25;63.36;99510.38;5063148;28;20025;-64
2021/01/15 00:58:02;;;;;;;6.50;3.93;;;;;;;2.24;63.50;99506.94;5063688;28;20029;-66
2021/01/15 01:00:29;;;;;;;8.00;4.20;;;;;;;2.28;63.06;99502.31;5062964;28;20071;-63
2021/01/15 01:02:54;;;;;;;7.17;4.07;;;;;;;2.21;63.39;99515.00;5063032;28;20262;-66
2021/01/15 01:05:21;;;;;;;6.37;4.10;;;;;;;2.31;63.90;99517.75;5062886;28;20035;-63
2021/01/15 01:07:50;;;;;;;7.67;4.20;;;;;;;2.49;63.55;99513.75;5063432;28;20025;-66
2021/01/15 01:10:17;;;;;;;8.10;4.03;;;;;;;2.45;63.60;99508.88;5062877;28;20056;-66
2021/01/15 01:12:43;;;;;;;7.33;4.17;;;;;;;2.19;64.22;99510.84;5062921;28;20234;-63
2021/01/15 01:15:11;;;;;;;6.13;3.80;;;;;;;2.06;64.65;99503.06;5062629;28;20040;-66
2021/01/15 01:17:37;;;;;;;7.20;4.30;;;;;;;1.92;65.41;99516.28;5063247;28;20040;-63
2021/01/15 01:20:07;;;;;;;5.43;3.77;;;;;;;2.01;65.11;99515.63;5062928;28;20025;-63
2021/01/15 01:22:32;;;;;;;5.70;3.67;;;;;;;2.02;64.63;99512.06;5063237;28;20040;-63
2021/01/15 01:24:58;;;;;;;10.17;5.10;;;;;;;2.05;64.46;99501.38;5063064;28;20223;-66
2021/01/15 01:27:24;;;;;;;7.00;3.77;;;;;;;2.07;63.85;99504.72;5061749;28;20487;-66
2021/01/15 01:29:49;;;;;;;6.83;3.40;;;;;;;2.18;63.91;99509.16;5062681;28;20032;-63
2021/01/15 01:32:15;;;;;;;7.80;3.50;;;;;;;2.06;64.04;99512.66;5062868;28;20248;-66
2021/01/15 01:34:41;;;;;;;6.93;4.30;;;;;;;2.09;63.90;99507.25;5062572;28;20039;-66
2021/01/15 01:37:06;;;;;;;6.13;3.27;;;;;;;2.12;63.66;99512.25;5062145;28;20044;-66
2021/01/15 01:39:32;;;;;;;7.07;3.90;;;;;;;2.12;63.85;99512.25;5061304;28;20200;-66
2021/01/15 01:41:57;;;;;;;6.70;3.90;;;;;;;2.08;63.74;99513.38;5061663;28;20060;-66
2021/01/15 01:44:24;;;;;;;5.37;3.00;;;;;;;1.86;64.38;99511.53;5062494;28;20226;-66
2021/01/15 01:46:50;;;;;;;5.20;3.50;;;;;;;1.74;64.86;99510.66;5062760;28;20028;-66
2021/01/15 01:49:15;;;;;;;5.07;3.20;;;;;;;1.86;63.86;99511.53;5062264;28;20222;-66
2021/01/15 01:51:41;;;;;;;7.67;3.50;;;;;;;1.84;62.75;99511.63;5062735;28;20100;-65
2021/01/15 01:54:08;;;;;;;6.13;3.67;;;;;;;1.72;63.67;99515.16;5062319;28;20041;-68
2021/01/15 01:56:34;;;;;;;6.63;3.47;;;;;;;1.84;63.00;99508.19;5061347;28;20029;-68
2021/01/15 01:59:00;;;;;;;6.57;3.40;;;;;;;1.66;64.06;99515.59;5062399;28;20234;-66
2021/01/15 02:01:26;;;;;;;8.93;4.10;;;;;;;1.63;63.21;99523.63;5062400;28;20060;-65
2021/01/15 02:04:01;;;;;;;8.13;3.97;;;;;;;1.80;62.77;99520.63;5062374;28;20029;-68
2021/01/15 02:06:27;;;;;;;9.67;4.40;;;;;;;1.59;63.51;99517.81;5062498;28;20043;-65
2021/01/15 02:08:53;;;;;;;7.23;4.20;;;;;;;1.71;62.96;99523.09;5062334;28;20041;-65
2021/01/15 02:11:30;;;;;;;8.00;4.10;;;;;;;1.84;62.61;99537.75;5062200;28;20360;-66
2021/01/15 02:14:14;;;;;;;8.90;3.87;;;;;;;2.00;62.55;99547.91;5062582;28;20025;-68
2021/01/15 02:16:41;;;;;;;6.40;3.27;;;;;;;1.78;63.17;99546.03;5062577;28;20314;-68
2021/01/15 02:19:18;;;;;;;7.17;3.43;;;;;;;1.86;62.77;99551.50;5062049;28;20029;-65
2021/01/15 02:21:46;;;;;;;9.10;4.37;;;;;;;1.98;61.79;99556.78;5062504;28;20029;-65
2021/01/15 02:24:41;;;;;;;5.60;3.47;;;;;;;2.03;61.63;99557.28;5062082;28;20029;-68
2021/01/15 02:27:50;;;;;;;6.30;3.40;;;;;;;2.10;62.57;99558.53;5061565;28;20045;-65
2021/01/15 02:30:30;;;;;;;4.93;3.20;;;;;;;2.10;62.56;99551.53;5060256;28;20100;-65
2021/01/15 02:33:03;;;;;;;4.97;3.07;;;;;;;2.02;62.92;99555.63;5062591;28;20032;-68
2021/01/15 02:35:48;;;;;;;8.57;3.70;;;;;;;1.98;62.91;99544.56;5062125;28;20029;-68
2021/01/15 02:38:20;;;;;;;7.83;3.87;;;;;;;1.85;63.72;99547.25;5062203;28;20111;-68
2021/01/15 02:41:05;;;;;;;6.30;3.13;;;;;;;1.87;63.69;99553.19;5060672;28;20067;-65
2021/01/15 02:43:33;;;;;;;5.65;2.88;;;;;;;1.87;63.48;99552.34;5062218;28;20033;-68
2021/01/15 02:46:01;;;;;;;8.80;3.37;;;;;;;1.84;63.28;99548.19;5061913;28;20094;-68
2021/01/15 02:48:31;;;;;;;6.57;3.20;;;;;;;1.91;62.23;99552.00;5061993;28;20033;-68
2021/01/15 02:50:58;;;;;;;6.77;3.20;;;;;;;2.02;61.65;99551.22;5065102;28;20032;-68
2021/01/15 02:53:24;;;;;;;5.40;3.10;;;;;;;1.90;61.64;99552.13;5065469;28;20029;-65
2021/01/15 02:55:50;;;;;;;7.80;3.77;;;;;;;2.13;61.12;99561.75;5065340;28;20036;-65
2021/01/15 02:58:15;;;;;;;5.53;3.30;;;;;;;2.09;61.41;99559.47;5065410;28;20211;-67
2021/01/15 03:00:41;;;;;;;13.77;5.77;;;;;;;1.92;61.55;99556.28;5065231;28;20092;-68
2021/01/15 03:03:44;;;;;;;4.77;3.23;;;;;;;1.88;61.55;99554.84;5065757;28;20088;-68
2021/01/15 03:06:15;;;;;;;4.13;2.87;;;;;;;1.77;61.50;99556.56;5063239;28;20227;-65
2021/01/15 03:08:43;;;;;;;5.20;2.70;;;;;;;1.71;61.70;99552.63;5065250;28;20219;-68
2021/01/15 03:11:09;;;;;;;5.30;2.90;;;;;;;1.75;61.38;99563.69;5064843;28;20102;-68
2021/01/15 03:13:36;;;;;;;4.13;2.87;;;;;;;1.71;61.37;99560.47;5065220;28;20037;-65
2021/01/15 03:16:04;;;;;;;4.63;2.43;;;;;;;1.68;61.61;99568.50;5065231;28;20028;-68
2021/01/15 03:18:34;;;;;;;3.83;2.73;;;;;;;1.72;61.75;99571.72;5064993;28;20090;-68
2021/01/15 03:21:01;;;;;;;4.73;3.00;;;;;;;1.92;60.98;99582.41;5064857;28;20096;-66
2021/01/15 03:23:27;;;;;;;5.70;3.17;;;;;;;1.91;61.15;99585.97;5064991;28;20025;-68
2021/01/15 03:25:53;;;;;;;5.40;3.53;;;;;;;2.00;61.31;99579.22;5064970;28;20206;-65
2021/01/15 03:28:18;;;;;;;5.47;3.10;;;;;;;1.91;61.51;99580.75;5064890;28;20029;-65
2021/01/15 03:30:44;;;;;;;12.00;4.53;;;;;;;2.04;61.07;99587.69;5064587;28;20032;-68
2021/01/15 03:33:09;;;;;;;7.23;4.47;;;;;;;2.00;61.27;99586.25;5064699;28;20029;-68
2021/01/15 03:35:35;;;;;;;7.03;4.83;;;;;;;1.80;62.48;99588.50;5064925;28;20033;-66
2021/01/15 03:38:09;;;;;;;8.00;3.87;;;;;;;1.79;62.47;99601.66;5065230;28;20100;-65
2021/01/15 03:40:38;;;;;;;9.00;4.50;;;;;;;1.72;63.13;99601.28;5064750;28;20035;-65
2021/01/15 03:43:12;;;;;;;7.60;4.27;;;;;;;1.67;63.42;99603.38;5065175;28;20108;-68
2021/01/15 03:45:39;;;;;;;9.00;4.07;;;;;;;1.69;63.44;99596.28;5064501;28;20028;-68
2021/01/15 03:48:05;;;;;;;6.60;3.70;;;;;;;1.82;62.83;99591.00;5064973;28;20094;-68
2021/01/15 03:50:31;;;;;;;5.17;3.13;;;;;;;1.80;62.73;99604.19;5064338;28;20029;-68
2021/01/15 03:52:56;;;;;;;6.70;3.63;;;;;;;1.62;62.96;99605.50;5063645;28;20067;-65
2021/01/15 03:55:22;;;;;;;8.27;3.53;;;;;;;1.68;62.99;99606.81;5064605;28;20021;-66
2021/01/15 03:57:47;;;;;;;7.57;4.13;;;;;;;1.57;63.54;99607.59;5064880;28;20207;-68
2021/01/15 04:00:13;;;;;;;6.53;3.80;;;;;;;1.56;63.50;99601.53;5063722;28;20351;-65
2021/01/15 04:02:39;;;;;;;6.13;3.40;;;;;;;1.59;64.01;99613.53;5064554;28;20319;-65
2021/01/15 04:05:08;;;;;;;8.10;4.07;;;;;;;1.65;63.15;99609.66;5064112;28;20043;-65
2021/01/15 04:07:34;;;;;;;7.73;4.10;;;;;;;1.64;63.34;99616.66;5064662;28;20029;-68
2021/01/15 04:09:59;;;;;;;6.00;3.80;;;;;;;1.57;63.02;99618.03;5064193;28;20092;-68
2021/01/15 04:12:25;;;;;;;9.17;4.57;;;;;;;1.34;63.36;99614.41;5064042;28;20415;-65
2021/01/15 04:14:50;;;;;;;12.20;4.30;;;;;;;1.59;62.44;99623.97;5064148;28;20029;-68
2021/01/15 04:17:16;;;;;;;11.90;3.90;;;;;;;1.56;62.40;99624.19;5064341;28;20040;-68
2021/01/15 04:19:41;;;;;;;7.60;4.37;;;;;;;1.41;63.49;99620.88;5063851;28;20041;-65
2021/01/15 04:22:07;;;;;;;9.50;4.33;;;;;;;1.66;62.25;99629.59;5063816;28;20041;-65
2021/01/15 04:24:32;;;;;;;10.03;4.73;;;;;;;1.74;62.56;99638.56;5063954;28;20025;-65
2021/01/15 04:26:58;;;;;;;9.50;5.00;;;;;;;1.64;62.61;99641.91;5064138;28;20041;-65
2021/01/15 04:29:27;;;;;;;12.13;5.80;;;;;;;1.54;62.73;99639.13;5063565;28;20097;-65
2021/01/15 04:31:53;;;;;;;13.43;5.93;;;;;;;1.70;62.19;99651.94;5063903;28;20230;-68
2021/01/15 04:34:18;;;;;;;12.33;6.40;;;;;;;1.91;61.88;99666.91;5062285;28;20037;-68
2021/01/15 04:36:45;;;;;;;11.27;6.30;;;;;;;1.77;62.40;99667.03;5063817;28;20040;-65
2021/01/15 04:39:10;;;;;;;10.37;6.33;;;;;;;1.80;62.37;99660.78;5063351;28;20045;-68
2021/01/15 04:41:36;;;;;;;8.53;5.77;;;;;;;1.82;62.03;99664.09;5063754;28;20036;-66
2021/01/15 04:44:03;;;;;;;9.73;5.83;;;;;;;1.67;62.35;99663.41;5063663;28;20024;-65
2021/01/15 04:46:30;;;;;;;8.23;5.00;;;;;;;1.79;61.66;99656.50;5063420;28;20072;-68
2021/01/15 04:48:56;;;;;;;9.77;5.03;;;;;;;1.85;61.35;99658.66;5062062;28;20032;-68
2021/01/15 04:51:26;;;;;;;12.70;5.30;;;;;;;1.67;62.10;99654.75;5063575;28;20037;-68
2021/01/15 04:54:01;;;;;;;8.27;5.50;;;;;;;1.42;62.65;99661.69;5063409;28;20311;-68
2021/01/15 04:56:39;;;;;;;10.37;5.97;;;;;;;1.54;62.84;99681.72;5063285;28;20310;-68
2021/01/15 04:59:07;;;;;;;11.87;7.23;;;;;;;1.58;62.92;99677.09;5063102;28;20327;-68
2021/01/15 05:01:37;;;;;;;13.23;6.53;;;;;;;1.64;62.66;99678.47;5063076;28;20044;-68
2021/01/15 05:04:07;;;;;;;11.83;6.50;;;;;;;1.74;62.13;99682.09;5062968;28;20036;-68
2021/01/15 05:06:49;;;;;;;16.23;7.03;;;;;;;1.71;61.47;99682.31;5063103;28;20261;-65
2021/01/15 05:09:19;;;;;;;11.80;6.57;;;;;;;1.72;61.64;99671.75;5062846;28;20021;-68
2021/01/15 05:11:45;;;;;;;17.80;7.03;;;;;;;1.80;61.19;99669.44;5062176;28;20045;-65
2021/01/15 05:14:13;;;;;;;18.40;8.47;;;;;;;1.66;61.35;99669.56;5062791;28;20048;-68
2021/01/15 05:16:41;;;;;;;22.83;9.03;;;;;;;1.69;60.58;99673.75;5063053;28;20037;-65
2021/01/15 05:19:08;;;;;;;15.23;6.80;;;;;;;1.51;61.42;99689.75;5062946;28;20187;-65
2021/01/15 05:21:34;;;;;;;10.87;5.30;;;;;;;1.59;61.28;99697.03;5063082;28;20039;-65
2021/01/15 05:24:01;;;;;;;13.30;5.53;;;;;;;1.82;60.20;99708.50;5062742;28;20127;-68
2021/01/15 05:26:26;;;;;;;12.87;5.70;;;;;;;1.78;61.12;99722.69;5061585;28;20074;-65
2021/01/15 05:28:53;;;;;;;12.27;6.17;;;;;;;1.86;60.46;99723.84;5063054;28;20025;-68
2021/01/15 05:31:19;;;;;;;13.23;7.73;;;;;;;1.83;60.85;99731.88;5062610;28;20037;-68
2021/01/15 05:34:08;;;;;;;13.17;6.87;;;;;;;1.71;61.30;99731.91;5062578;28;20066;-68
2021/01/15 05:36:35;;;;;;;12.90;7.00;;;;;;;1.74;60.98;99724.69;5062357;28;20208;-66
2021/01/15 05:39:08;;;;;;;15.50;8.00;;;;;;;1.78;61.36;99730.53;5062532;28;20337;-68
2021/01/15 05:41:34;;;;;;;15.07;8.33;;;;;;;1.64;62.02;99721.06;5062698;28;20222;-68
2021/01/15 05:44:01;;;;;;;22.10;8.57;;;;;;;1.68;61.86;99721.66;5062579;28;20033;-68
2021/01/15 05:46:27;;;;;;;9.90;5.67;;;;;;;1.58;62.07;99726.69;5062611;28;20044;-68
2021/01/15 05:48:54;;;;;;;9.30;5.30;;;;;;;1.49;62.61;99733.38;5062521;28;20201;-65
2021/01/15 05:51:28;;;;;;;10.13;6.60;;;;;;;1.47;62.18;99735.25;5062747;28;20029;-68
2021/01/15 05:53:54;;;;;;;12.18;5.95;;;;;;;1.40;63.23;99751.44;5062399;28;20025;-65
2021/01/15 05:56:21;;;;;;;10.10;6.07;;;;;;;1.76;62.37;99751.53;5062559;28;20083;-65
2021/01/15 05:59:09;;;;;;;12.63;6.33;;;;;;;1.53;62.51;99747.06;5062444;28;20055;-66
2021/01/15 06:01:38;;;;;;;15.93;9.30;;;;;;;1.76;62.21;99753.31;5062527;28;20100;-68
2021/01/15 06:04:04;;;;;;;15.67;7.23;;;;;;;1.72;62.08;99762.28;5062375;28;20033;-65
2021/01/15 06:06:31;;;;;;;12.60;7.70;;;;;;;1.68;62.09;99759.06;5062546;28;20048;-68
2021/01/15 06:09:02;;;;;;;13.97;7.60;;;;;;;1.92;61.72;99769.56;5062355;28;20033;-66
2021/01/15 06:11:28;;;;;;;15.03;8.20;;;;;;;1.75;62.53;99777.72;5062408;28;20037;-68
2021/01/15 06:13:53;;;;;;;20.87;8.37;;;;;;;1.86;62.44;99778.66;5062317;28;20077;-68
2021/01/15 06:16:19;;;;;;;33.60;9.93;;;;;;;1.99;62.15;99775.19;5062372;28;20361;-68
2021/01/15 06:18:58;;;;;;;20.17;9.40;;;;;;;1.91;62.74;99778.34;5062343;28;20216;-68
2021/01/15 06:21:51;;;;;;;22.67;10.10;;;;;;;2.00;62.19;99776.88;5062521;28;20033;-68
2021/01/15 06:24:20;;;;;;;21.33;9.90;;;;;;;1.84;62.28;99785.78;5064151;28;20104;-68
2021/01/15 06:27:08;;;;;;;22.63;9.13;;;;;;;2.17;61.01;99789.63;5066400;28;20029;-68
2021/01/15 06:29:43;;;;;;;15.60;7.37;;;;;;;1.73;61.65;99788.28;5065999;28;20025;-68
2021/01/15 06:32:10;;;;;;;18.43;6.77;;;;;;;1.85;61.01;99797.88;5066328;28;20041;-65
2021/01/15 06:34:48;;;;;;;18.30;6.73;;;;;;;1.85;61.76;99804.88;5065791;28;20032;-65
2021/01/15 06:37:23;;;;;;;16.17;5.93;;;;;;;1.96;61.03;99818.03;5066274;28;20071;-65
2021/01/15 06:40:10;;;;;;;12.07;5.43;;;;;;;2.03;60.88;99831.50;5065699;28;20331;-68
2021/01/15 06:42:48;;;;;;;14.67;4.90;;;;;;;2.20;59.89;99825.97;5066275;28;20037;-65
2021/01/15 06:45:16;;;;;;;14.17;6.20;;;;;;;2.24;59.50;99832.66;5065580;28;20029;-65
2021/01/15 06:47:46;;;;;;;8.60;4.93;;;;;;;2.24;59.60;99836.09;5066018;28;20086;-65
2021/01/15 06:50:17;;;;;;;11.33;5.67;;;;;;;2.30;59.37;99832.22;5065385;28;20025;-68
2021/01/15 06:52:48;;;;;;;19.67;7.97;;;;;;;2.39;59.35;99826.34;5066005;28;20082;-69
2021/01/15 06:55:18;;;;;;;14.43;6.33;;;;;;;2.22;59.51;99831.94;5065354;28;20452;-70
2021/01/15 06:57:49;;;;;;;12.47;5.80;;;;;;;2.34;59.83;99838.06;5065992;28;20044;-70
2021/01/15 07:00:21;;;;;;;17.10;6.50;;;;;;;2.49;59.15;99835.22;5065279;28;20028;-67
2021/01/15 07:03:28;;;;;;;15.70;8.33;;;;;;;2.54;58.84;99848.78;5065817;28;20028;-68
2021/01/15 07:05:55;;;;;;;14.17;7.67;;;;;;;2.66;58.47;99859.31;5062671;28;20033;-70
2021/01/15 07:08:23;;;;;;;15.83;7.30;;;;;;;2.71;58.04;99860.66;5065434;28;20178;-71
2021/01/15 07:10:50;;;;;;;18.40;9.60;;;;;;;2.78;58.38;99871.53;5063637;28;20070;-67
2021/01/15 07:13:21;;;;;;;19.20;9.57;;;;;;;2.77;58.92;99872.47;5064873;28;20098;-67
2021/01/15 07:15:54;;;;;;;18.20;8.93;;;;;;;3.09;58.36;99873.59;5064689;28;20033;-65
2021/01/15 07:18:30;;;;;;;16.80;8.17;;;;;;;3.22;57.72;99876.19;5062676;28;20227;-67
2021/01/15 07:20:59;;;;;;;16.43;8.23;;;;;;;3.48;56.75;99879.50;5053413;28;20049;-64
2021/01/15 07:23:56;;;;;;;22.83;8.10;;;;;;;3.40;56.01;99866.16;5056081;28;20135;-63
2021/01/15 07:26:22;;;;;;;22.80;8.03;;;;;;;3.76;54.55;99873.88;5063968;28;20060;-65
2021/01/15 07:28:57;;;;;;;15.23;7.43;;;;;;;3.89;54.22;99873.78;5044720;28;20025;-66
2021/01/15 07:31:24;;;;;;;11.17;6.40;;;;;;;3.86;54.51;99881.88;5044626;28;20044;-64
2021/01/15 07:33:58;;;;;;;16.27;7.40;;;;;;;3.99;53.99;99879.97;5044545;28;20092;-73
2021/01/15 07:36:36;;;;;;;13.50;6.60;;;;;;;4.27;53.57;99891.00;5056740;28;20037;-66
2021/01/15 07:39:15;;;;;;;10.70;6.07;;;;;;;4.28;53.09;99903.16;5064466;28;20037;-69
2021/01/15 07:41:48;;;;;;;13.90;7.73;;;;;;;4.46;52.63;99905.19;5064687;28;20380;-68
2021/01/15 07:44:25;;;;;;;18.70;8.32;;;;;;;4.61;51.94;99911.03;5063276;28;20060;-68
2021/01/15 07:46:53;;;;;;;23.63;9.17;;;;;;;4.60;51.66;99909.34;5063282;28;20063;-67
2021/01/15 07:49:21;;;;;;;13.97;6.70;;;;;;;4.51;51.43;99920.56;5063074;28;20374;-65
2021/01/15 07:52:07;;;;;;;13.10;7.20;;;;;;;4.25;52.49;99916.50;5064522;28;20104;-68
2021/01/15 07:54:50;;;;;;;16.40;6.90;;;;;;;4.27;53.38;99919.84;5042759;28;20029;-67
2021/01/15 07:57:19;;;;;;;11.60;6.40;;;;;;;4.12;53.81;99920.03;5044342;28;20048;-68
2021/01/15 07:59:46;;;;;;;13.37;7.13;;;;;;;4.24;53.79;99914.81;5043863;28;20045;-68
2021/01/15 08:02:15;;;;;;;14.23;7.47;;;;;;;4.31;53.46;99916.03;5043815;28;20088;-64
2021/01/15 08:04:40;;;;;;;19.47;8.07;;;;;;;4.52;53.75;99924.03;5047300;28;20241;-65
2021/01/15 08:07:11;;;;;;;21.90;9.23;;;;;;;4.70;53.80;99926.03;5064216;28;20099;-68
2021/01/15 08:09:40;;;;;;;18.03;8.10;;;;;;;4.66;53.33;99926.41;5070912;28;20021;-64
2021/01/15 08:12:06;;;;;;;21.97;9.07;;;;;;;4.78;53.13;99923.66;5072288;28;20040;-63
2021/01/15 08:14:33;;;;;;;15.70;7.13;;;;;;;4.80;52.83;99929.59;5076876;28;20108;-65
2021/01/15 08:16:59;;;;;;;15.07;7.07;;;;;;;4.85;52.32;99929.25;5063879;28;20067;-62
2021/01/15 08:19:25;;;;;;;49.70;7.40;;;;;;;4.58;52.81;99937.50;5075394;28;20042;-66
2021/01/15 08:21:51;;;;;;;11.50;6.30;;;;;;;4.94;52.68;99931.13;5083758;28;20062;-70
2021/01/15 08:24:22;;;;;;;10.70;5.63;;;;;;;4.90;50.96;99934.13;5083337;28;20029;-70
